Time;durP1;ratioP1;P1;durP2;ratioP2;P2;SDS_P1;SDS_P2;PMS_P1;PMS_P2;Temp;Humidity;BMP_temperature;BMP_pressure;BME280_temperature;BME280_humidity;BME280_pressure;Samples;Min_cycle;Max_cycle;Signal;HPM_P1;HPM_P2
2023/09/30 00:01:18;;;;;;;12.27;5.45;;;11.80;99.90;;;;;;5032287;28;20123;-83
2023/09/30 00:03:44;;;;;;;9.93;5.18;;;11.80;99.90;;;;;;5032201;28;20144;-83
2023/09/30 00:06:10;;;;;;;12.57;4.82;;;11.80;99.90;;;;;;5031225;28;20413;-83
2023/09/30 00:08:39;;;;;;;13.27;5.05;;;11.90;99.90;;;;;;5032279;28;20175;-83
2023/09/30 00:11:05;;;;;;;15.00;5.30;;;11.80;99.90;;;;;;5032235;28;20045;-83
2023/09/30 00:13:31;;;;;;;6.90;3.28;;;11.80;99.90;;;;;;5032120;28;20462;-83
2023/09/30 00:15:57;;;;;;;9.55;4.55;;;11.80;99.90;;;;;;5032247;28;20045;-82
2023/09/30 00:18:23;;;;;;;9.63;4.72;;;11.80;99.90;;;;;;5031928;28;20049;-82
2023/09/30 00:20:49;;;;;;;9.57;4.78;;;11.70;99.90;;;;;;5031705;28;20049;-83
2023/09/30 00:23:15;;;;;;;10.35;4.53;;;11.70;99.90;;;;;;5034204;28;20103;-83
2023/09/30 00:25:41;;;;;;;9.73;4.47;;;11.70;99.90;;;;;;5035858;28;20098;-83
2023/09/30 00:28:08;;;;;;;11.32;4.35;;;11.70;99.90;;;;;;5035834;28;20049;-83
2023/09/30 00:30:33;;;;;;;14.20;5.45;;;11.70;99.90;;;;;;5034696;28;20050;-82
2023/09/30 00:33:00;;;;;;;9.73;4.82;;;11.70;99.90;;;;;;5035913;28;20060;-82
2023/09/30 00:35:25;;;;;;;11.68;5.07;;;11.60;99.90;;;;;;5036422;28;20120;-82
2023/09/30 00:37:51;;;;;;;7.15;4.70;;;11.60;99.90;;;;;;5035994;28;20046;-82
2023/09/30 00:40:17;;;;;;;8.05;4.50;;;11.70;99.90;;;;;;5034185;28;20404;-83
2023/09/30 00:42:43;;;;;;;10.18;5.72;;;11.70;99.90;;;;;;5035534;28;20057;-82
2023/09/30 00:45:10;;;;;;;14.00;6.43;;;11.70;99.90;;;;;;5035836;28;20051;-82
2023/09/30 00:47:36;;;;;;;8.85;4.45;;;11.80;99.90;;;;;;5035964;28;20053;-83
2023/09/30 00:50:08;;;;;;;11.95;4.70;;;11.80;99.90;;;;;;5035400;28;20042;-83
2023/09/30 00:52:35;;;;;;;8.90;4.22;;;11.90;99.90;;;;;;5035654;28;20088;-82
2023/09/30 00:55:02;;;;;;;10.77;4.75;;;11.90;99.90;;;;;;5035459;28;20049;-83
2023/09/30 00:57:30;;;;;;;7.93;4.63;;;11.90;99.90;;;;;;5035558;28;20411;-83
2023/09/30 00:59:57;;;;;;;8.45;4.00;;;12.00;99.90;;;;;;5035327;28;20042;-83
2023/09/30 01:02:23;;;;;;;7.82;3.55;;;11.90;99.90;;;;;;5035358;28;20069;-83
2023/09/30 01:04:49;;;;;;;13.63;5.43;;;11.90;99.90;;;;;;5035331;28;20451;-83
2023/09/30 01:07:15;;;;;;;11.60;4.63;;;11.90;99.90;;;;;;5035260;28;20045;-83
2023/09/30 01:09:41;;;;;;;11.02;5.35;;;11.90;99.90;;;;;;5035173;28;20050;-83
2023/09/30 01:12:08;;;;;;;12.88;5.60;;;11.90;99.90;;;;;;5035170;28;20132;-83
2023/09/30 01:14:35;;;;;;;8.65;4.28;;;11.90;99.90;;;;;;5034435;28;20053;-83
2023/09/30 01:17:01;;;;;;;9.10;4.28;;;11.90;99.90;;;;;;5033823;28;20080;-83
2023/09/30 01:19:28;;;;;;;8.13;4.30;;;11.90;99.90;;;;;;5035468;28;20038;-83
2023/09/30 01:21:59;;;;;;;9.32;4.03;;;11.80;99.90;;;;;;5033759;28;20496;-83
2023/09/30 01:24:28;;;;;;;12.18;5.20;;;11.80;99.90;;;;;;5035465;28;20053;-83
2023/09/30 01:26:53;;;;;;;9.48;4.47;;;11.90;99.90;;;;;;5034703;28;20103;-83
2023/09/30 01:29:20;;;;;;;9.75;4.30;;;11.50;99.90;;;;;;5034191;28;20045;-83
2023/09/30 01:31:49;;;;;;;10.88;4.40;;;11.90;99.90;;;;;;5035521;28;20045;-83
2023/09/30 01:34:16;;;;;;;9.05;4.90;;;11.90;99.90;;;;;;5033740;28;20115;-83
2023/09/30 01:36:44;;;;;;;11.32;4.65;;;11.80;99.90;;;;;;5034620;28;20107;-84
2023/09/30 01:39:11;;;;;;;11.68;5.30;;;11.90;99.90;;;;;;5035256;28;20052;-83
2023/09/30 01:41:37;;;;;;;10.48;4.32;;;11.90;99.90;;;;;;5034336;28;20496;-83
2023/09/30 01:44:04;;;;;;;9.57;5.80;;;11.90;99.90;;;;;;5033424;28;20046;-83
2023/09/30 01:46:29;;;;;;;14.98;4.60;;;11.90;99.90;;;;;;5034513;28;20049;-82
2023/09/30 01:48:55;;;;;;;5.93;4.25;;;11.90;99.90;;;;;;5033785;28;20125;-83
2023/09/30 01:51:21;;;;;;;8.15;4.57;;;11.90;99.90;;;;;;5034558;28;20048;-82
2023/09/30 01:53:47;;;;;;;11.57;4.68;;;11.90;99.90;;;;;;5034063;28;20046;-83
2023/09/30 01:56:13;;;;;;;11.55;4.03;;;11.90;99.90;;;;;;5034373;28;20044;-83
2023/09/30 01:58:39;;;;;;;10.85;4.60;;;11.90;99.90;;;;;;5033340;28;20053;-82
2023/09/30 02:01:05;;;;;;;9.30;4.75;;;11.90;99.90;;;;;;5033736;28;20076;-83
2023/09/30 02:03:31;;;;;;;8.15;3.90;;;11.90;99.90;;;;;;5034253;28;20045;-82
2023/09/30 02:05:57;;;;;;;13.35;3.72;;;12.00;99.90;;;;;;5034090;28;20072;-82
2023/09/30 02:08:23;;;;;;;13.13;5.57;;;12.00;99.90;;;;;;5034114;28;20136;-82
2023/09/30 02:10:50;;;;;;;12.25;4.38;;;12.00;99.90;;;;;;5034490;28;20080;-83
2023/09/30 02:13:17;;;;;;;9.05;5.15;;;12.10;99.90;;;;;;5033692;28;20390;-83
2023/09/30 02:15:43;;;;;;;8.55;4.75;;;12.10;99.90;;;;;;5034627;28;20056;-82
2023/09/30 02:18:09;;;;;;;9.23;4.30;;;12.20;99.90;;;;;;5033986;28;20053;-83
2023/09/30 02:20:39;;;;;;;7.18;4.65;;;12.10;99.90;;;;;;5034015;28;20116;-83
2023/09/30 02:23:06;;;;;;;10.70;4.70;;;12.20;99.90;;;;;;5033937;28;20045;-83
2023/09/30 02:25:33;;;;;;;7.80;4.68;;;12.10;99.90;;;;;;5033386;28;20052;-83
2023/09/30 02:28:00;;;;;;;7.80;3.92;;;12.10;99.90;;;;;;5033776;28;20116;-83
2023/09/30 02:30:27;;;;;;;10.48;4.32;;;12.20;99.90;;;;;;5033748;28;20046;-83
2023/09/30 02:32:53;;;;;;;11.23;4.43;;;12.20;99.90;;;;;;5032898;28;20092;-83
2023/09/30 02:35:20;;;;;;;10.85;4.15;;;12.20;99.90;;;;;;5032582;28;20085;-82
2023/09/30 02:37:46;;;;;;;9.23;4.25;;;12.20;99.90;;;;;;5033707;28;20041;-81
2023/09/30 02:40:14;;;;;;;8.60;4.57;;;12.20;99.90;;;;;;5033422;28;20065;-83
2023/09/30 02:42:41;;;;;;;10.13;4.57;;;12.20;99.90;;;;;;5033737;28;20057;-81
2023/09/30 02:45:08;;;;;;;10.65;4.30;;;12.20;99.90;;;;;;5032359;28;20099;-82
2023/09/30 02:47:38;;;;;;;10.32;5.10;;;12.10;99.90;;;;;;5033493;28;20126;-83
2023/09/30 02:50:08;;;;;;;9.43;4.38;;;12.10;99.90;;;;;;5033370;28;20056;-84
2023/09/30 02:52:34;;;;;;;8.77;4.60;;;12.10;99.90;;;;;;5033660;28;20056;-83
2023/09/30 02:55:00;;;;;;;10.38;4.63;;;12.10;99.90;;;;;;5033296;28;20071;-83
2023/09/30 02:57:31;;;;;;;9.05;4.35;;;12.20;99.90;;;;;;5031933;28;20474;-83
2023/09/30 02:59:59;;;;;;;11.23;4.82;;;12.20;99.90;;;;;;5032174;28;20116;-81
2023/09/30 03:02:24;;;;;;;8.23;4.93;;;12.30;99.90;;;;;;5032980;28;20108;-82
2023/09/30 03:04:51;;;;;;;10.35;4.78;;;12.30;99.90;;;;;;5031461;28;20057;-83
2023/09/30 03:07:19;;;;;;;9.70;5.35;;;12.30;99.90;;;;;;5033152;28;20049;-84
2023/09/30 03:09:46;;;;;;;7.32;4.57;;;12.30;99.90;;;;;;5033090;28;20128;-82
2023/09/30 03:12:12;;;;;;;13.02;4.65;;;12.30;99.90;;;;;;5032978;28;20486;-83
2023/09/30 03:14:40;;;;;;;11.68;5.03;;;12.30;99.90;;;;;;5033482;28;20128;-83
2023/09/30 03:17:11;;;;;;;7.30;4.45;;;12.30;99.90;;;;;;5033361;28;20049;-83
2023/09/30 03:19:38;;;;;;;11.75;5.40;;;12.30;99.90;;;;;;5032682;28;20050;-83
2023/09/30 03:22:04;;;;;;;10.38;4.60;;;12.30;99.90;;;;;;5032956;28;20064;-83
2023/09/30 03:24:30;;;;;;;9.65;4.50;;;12.30;99.90;;;;;;5032702;28;20053;-82
2023/09/30 03:26:57;;;;;;;7.53;4.10;;;12.20;99.90;;;;;;5032832;28;20056;-84
2023/09/30 03:29:23;;;;;;;7.63;4.25;;;12.20;99.90;;;;;;5033096;28;20045;-83
2023/09/30 03:31:49;;;;;;;9.70;4.53;;;12.20;99.90;;;;;;5031921;28;20180;-83
2023/09/30 03:34:16;;;;;;;8.70;4.70;;;12.20;99.90;;;;;;5032980;28;20045;-83
2023/09/30 03:36:42;;;;;;;8.35;4.95;;;12.20;99.90;;;;;;5032349;28;20510;-81
2023/09/30 03:39:08;;;;;;;7.63;4.25;;;12.30;99.90;;;;;;5032909;28;20132;-83
2023/09/30 03:41:37;;;;;;;9.65;5.30;;;12.30;99.90;;;;;;5030986;28;20093;-83
2023/09/30 03:44:03;;;;;;;12.88;6.38;;;12.30;99.90;;;;;;5032661;28;20096;-82
2023/09/30 03:46:30;;;;;;;14.75;5.55;;;12.30;99.90;;;;;;5032604;28;20049;-83
2023/09/30 03:48:56;;;;;;;9.02;5.03;;;12.30;99.90;;;;;;5032295;28;20049;-83
2023/09/30 03:51:24;;;;;;;8.75;5.30;;;12.30;99.90;;;;;;5032502;28;20037;-83
2023/09/30 03:53:51;;;;;;;12.10;5.28;;;12.30;99.90;;;;;;5032152;28;20046;-83
2023/09/30 03:56:18;;;;;;;11.63;5.03;;;12.30;99.90;;;;;;5032128;28;20476;-82
2023/09/30 03:58:44;;;;;;;10.32;4.70;;;12.30;99.90;;;;;;5037184;28;20053;-82
2023/09/30 04:01:11;;;;;;;11.07;4.90;;;12.20;99.90;;;;;;5021653;28;20060;-83
2023/09/30 04:03:40;;;;;;;13.95;6.30;;;12.20;99.90;;;;;;5038006;28;20045;-82
2023/09/30 04:06:09;;;;;;;13.30;5.43;;;12.20;99.90;;;;;;5038717;28;20045;-82
2023/09/30 04:08:35;;;;;;;12.60;6.25;;;12.10;99.90;;;;;;5037756;28;20056;-83
2023/09/30 04:11:04;;;;;;;10.43;5.15;;;12.10;99.90;;;;;;5037856;28;20073;-83
2023/09/30 04:13:30;;;;;;;9.90;5.38;;;12.10;99.90;;;;;;5039026;28;20146;-83
2023/09/30 04:15:58;;;;;;;10.90;5.68;;;12.00;99.90;;;;;;5038846;28;20061;-83
2023/09/30 04:18:25;;;;;;;12.80;5.75;;;12.00;99.90;;;;;;5039386;28;20073;-82
2023/09/30 04:20:52;;;;;;;10.10;6.43;;;12.00;99.90;;;;;;5039266;28;20050;-83
2023/09/30 04:23:20;;;;;;;10.90;5.68;;;11.90;99.90;;;;;;5038968;28;20460;-83
2023/09/30 04:25:46;;;;;;;12.07;6.22;;;11.60;99.90;;;;;;5039431;28;20053;-83
2023/09/30 04:28:13;;;;;;;9.77;5.88;;;11.90;99.90;;;;;;5037797;28;20130;-83
2023/09/30 04:30:40;;;;;;;16.30;6.00;;;11.90;99.90;;;;;;5037649;28;20037;-82
2023/09/30 04:33:05;;;;;;;12.32;6.00;;;11.90;99.90;;;;;;5038972;28;20049;-83
2023/09/30 04:35:31;;;;;;;11.20;5.55;;;11.90;99.90;;;;;;5037798;28;20375;-83
2023/09/30 04:38:04;;;;;;;11.65;6.03;;;11.80;99.90;;;;;;5038848;28;20101;-82
2023/09/30 04:40:30;;;;;;;14.25;6.38;;;11.90;99.90;;;;;;5038554;28;20061;-82
2023/09/30 04:42:58;;;;;;;13.23;6.30;;;11.90;99.90;;;;;;5039321;28;20056;-83
2023/09/30 04:45:26;;;;;;;11.70;6.80;;;11.90;99.90;;;;;;5039037;28;20355;-82
2023/09/30 04:47:58;;;;;;;9.82;6.03;;;11.90;99.90;;;;;;5038201;28;20422;-83
2023/09/30 04:50:23;;;;;;;11.90;5.80;;;11.80;99.90;;;;;;5039000;28;20049;-81
2023/09/30 04:52:51;;;;;;;10.80;6.40;;;11.80;99.90;;;;;;5039113;28;20111;-82
2023/09/30 04:55:18;;;;;;;12.23;6.70;;;11.80;99.90;;;;;;5038291;28;20053;-83
2023/09/30 04:57:45;;;;;;;9.57;5.63;;;11.70;99.90;;;;;;5038306;28;20046;-82
2023/09/30 05:00:18;;;;;;;10.00;7.10;;;11.70;99.90;;;;;;5038429;28;20084;-82
2023/09/30 05:02:45;;;;;;;10.65;6.20;;;11.70;99.90;;;;;;5037510;28;20064;-82
2023/09/30 05:05:11;;;;;;;9.43;5.38;;;11.70;99.90;;;;;;5038778;28;20091;-82
2023/09/30 05:07:37;;;;;;;12.20;6.60;;;11.70;99.90;;;;;;5038272;28;20438;-83
2023/09/30 05:10:10;;;;;;;9.40;6.30;;;11.70;99.90;;;;;;5035135;28;20050;-83
2023/09/30 05:12:36;;;;;;;;;;;11.70;99.90;;;;;;5035639;28;20046;-83
2023/09/30 05:15:02;;;;;;;8.23;6.07;;;11.60;99.90;;;;;;5035403;28;20370;-82
2023/09/30 05:17:28;;;;;;;9.10;5.93;;;11.60;99.90;;;;;;5035266;28;20050;-83
2023/09/30 05:19:56;;;;;;;11.20;7.07;;;11.50;99.90;;;;;;5033635;28;20057;-83
2023/09/30 05:22:23;;;;;;;10.45;6.45;;;11.50;99.90;;;;;;5033534;28;20110;-83
2023/09/30 05:24:53;;;;;;;10.77;6.70;;;11.50;99.90;;;;;;5034797;28;20057;-83
2023/09/30 05:27:19;;;;;;;8.18;5.57;;;11.50;99.90;;;;;;5034773;28;20123;-83
2023/09/30 05:29:45;;;;;;;11.13;6.07;;;11.50;99.90;;;;;;5034756;28;20508;-82
2023/09/30 05:32:12;;;;;;;10.98;6.22;;;11.50;99.90;;;;;;5033952;28;20099;-82
2023/09/30 05:34:39;;;;;;;10.57;5.20;;;11.50;99.90;;;;;;5017353;28;20049;-83
2023/09/30 05:37:05;;;;;;;12.10;6.05;;;11.40;99.90;;;;;;5033409;28;20112;-82
2023/09/30 05:39:31;;;;;;;15.20;5.40;;;11.50;99.90;;;;;;5034534;28;20096;-82
2023/09/30 05:42:00;;;;;;;13.23;6.30;;;11.50;99.90;;;;;;5035196;28;20061;-82
2023/09/30 05:44:27;;;;;;;9.45;5.93;;;11.40;99.90;;;;;;5033325;28;20076;-82
2023/09/30 05:46:53;;;;;;;14.15;6.35;;;11.40;99.90;;;;;;5033545;28;20064;-83
2023/09/30 05:49:19;;;;;;;9.07;6.28;;;11.40;99.90;;;;;;5034614;28;20041;-83
2023/09/30 05:51:46;;;;;;;14.15;5.85;;;11.30;99.90;;;;;;5034325;28;20489;-82
2023/09/30 05:54:12;;;;;;;14.45;6.35;;;11.30;99.90;;;;;;5033118;28;20054;-82
2023/09/30 05:56:42;;;;;;;11.25;6.22;;;11.30;99.90;;;;;;5034927;28;20447;-83
2023/09/30 05:59:08;;;;;;;6.20;5.05;;;11.30;99.90;;;;;;5034229;28;20064;-83
2023/09/30 06:01:34;;;;;;;11.65;5.95;;;11.30;99.90;;;;;;5034230;28;20439;-83
2023/09/30 06:04:00;;;;;;;13.93;5.82;;;11.30;99.90;;;;;;5032819;28;20051;-82
2023/09/30 06:06:28;;;;;;;10.43;6.32;;;11.30;99.90;;;;;;5034545;28;20041;-83
2023/09/30 06:08:54;;;;;;;11.52;6.40;;;11.40;99.90;;;;;;5033171;28;20230;-83
2023/09/30 06:11:30;;;;;;;11.82;6.28;;;11.40;99.90;;;;;;5034007;28;20077;-84
2023/09/30 06:13:58;;;;;;;14.35;6.43;;;11.40;99.90;;;;;;5016550;28;20049;-83
2023/09/30 06:16:26;;;;;;;12.32;7.68;;;11.40;99.90;;;;;;5033976;28;20045;-81
2023/09/30 06:18:52;;;;;;;9.85;6.13;;;11.40;99.90;;;;;;5033939;28;20085;-82
2023/09/30 06:21:20;;;;;;;13.00;7.15;;;11.40;99.90;;;;;;5033711;28;20092;-82
2023/09/30 06:23:48;;;;;;;12.98;7.05;;;11.50;99.90;;;;;;5033856;28;20053;-83
2023/09/30 06:26:15;;;;;;;10.00;6.40;;;11.50;99.90;;;;;;5033159;28;20053;-82
2023/09/30 06:28:41;;;;;;;10.35;5.75;;;11.50;99.90;;;;;;5032414;28;20068;-82
2023/09/30 06:31:08;;;;;;;10.88;6.22;;;11.50;99.90;;;;;;5033726;28;20418;-82
2023/09/30 06:33:41;;;;;;;9.98;6.30;;;11.60;99.90;;;;;;5033440;28;20041;-82
2023/09/30 06:36:13;;;;;;;9.50;6.45;;;11.70;99.90;;;;;;5034497;28;20077;-82
2023/09/30 06:38:40;;;;;;;11.48;6.05;;;11.70;99.90;;;;;;5033313;28;20092;-82
2023/09/30 06:41:06;;;;;;;10.18;5.97;;;11.70;99.90;;;;;;5031954;28;20053;-82
2023/09/30 06:43:33;;;;;;;15.18;7.95;;;11.80;99.90;;;;;;5032465;28;20052;-83
2023/09/30 06:45:59;;;;;;;10.93;6.78;;;11.90;99.90;;;;;;5033308;28;20100;-83
2023/09/30 06:48:24;;;;;;;13.15;6.20;;;11.90;99.90;;;;;;5032332;28;20041;-82
2023/09/30 06:50:52;;;;;;;7.85;5.65;;;12.10;99.90;;;;;;5033071;28;20497;-82
2023/09/30 06:53:19;;;;;;;12.27;7.32;;;12.20;99.90;;;;;;5033142;28;20049;-81
2023/09/30 06:55:45;;;;;;;12.05;8.20;;;12.30;99.90;;;;;;5032131;28;20064;-83
2023/09/30 06:58:11;;;;;;;12.18;7.80;;;12.40;99.90;;;;;;5031801;28;20056;-83
2023/09/30 07:00:38;;;;;;;11.98;7.00;;;12.50;99.90;;;;;;5015581;28;20055;-82
2023/09/30 07:03:04;;;;;;;12.10;6.82;;;12.60;99.90;;;;;;5032496;28;20057;-84
2023/09/30 07:05:30;;;;;;;13.18;7.20;;;12.60;99.90;;;;;;5032736;28;20041;-83
2023/09/30 07:07:56;;;;;;;12.40;7.38;;;12.70;99.90;;;;;;5032851;28;20045;-84
2023/09/30 07:10:22;;;;;;;12.15;7.15;;;12.90;99.90;;;;;;5033025;28;20466;-85
2023/09/30 07:12:48;;;;;;;12.95;7.57;;;13.00;99.90;;;;;;5032953;28;20052;-86
2023/09/30 07:15:13;;;;;;;11.80;6.85;;;13.10;99.90;;;;;;5033608;28;20052;-82
2023/09/30 07:17:39;;;;;;;12.13;6.95;;;13.20;99.90;;;;;;5033017;28;20475;-82
2023/09/30 07:20:06;;;;;;;13.52;7.10;;;13.40;99.90;;;;;;5033003;28;20116;-83
2023/09/30 07:22:32;;;;;;;9.25;6.35;;;13.50;99.90;;;;;;5032027;28;20057;-83
2023/09/30 07:24:58;;;;;;;12.77;6.57;;;13.70;99.90;;;;;;5032436;28;20045;-83
2023/09/30 07:27:24;;;;;;;11.07;7.05;;;13.80;99.90;;;;;;5032723;28;20064;-84
2023/09/30 07:29:50;;;;;;;12.25;7.70;;;14.00;99.90;;;;;;5031212;28;20041;-84
2023/09/30 07:32:16;;;;;;;9.23;6.97;;;14.10;99.90;;;;;;5032116;28;20051;-85
2023/09/30 07:34:42;;;;;;;10.75;6.30;;;14.20;99.90;;;;;;5032607;28;20045;-83
2023/09/30 07:37:08;;;;;;;15.73;7.68;;;14.30;99.90;;;;;;5032450;28;20095;-83
2023/09/30 07:39:34;;;;;;;15.70;7.50;;;14.40;99.90;;;;;;5032492;28;20052;-83
2023/09/30 07:42:00;;;;;;;12.20;7.22;;;14.40;99.90;;;;;;5033169;28;20088;-83
2023/09/30 07:44:26;;;;;;;10.60;7.28;;;14.50;99.90;;;;;;5032215;28;20172;-83
2023/09/30 07:46:53;;;;;;;10.90;6.70;;;14.60;99.90;;;;;;5032906;28;20507;-82
2023/09/30 07:49:18;;;;;;;13.05;7.25;;;14.70;99.90;;;;;;5032610;28;20174;-79
2023/09/30 07:51:46;;;;;;;12.05;7.25;;;14.80;99.90;;;;;;5032318;28;20470;-82
2023/09/30 07:54:12;;;;;;;6.93;5.90;;;14.90;99.90;;;;;;5032146;28;20053;-82
2023/09/30 07:56:38;;;;;;;17.15;7.10;;;15.10;99.90;;;;;;5032730;28;20061;-82
2023/09/30 07:59:05;;;;;;;12.65;5.88;;;15.20;99.90;;;;;;5032888;28;20050;-81
2023/09/30 08:01:31;;;;;;;11.90;6.13;;;15.40;99.90;;;;;;5032310;28;20045;-82
2023/09/30 08:03:57;;;;;;;16.77;5.65;;;15.60;99.90;;;;;;5032631;28;20107;-82
2023/09/30 08:06:23;;;;;;;11.50;6.20;;;15.90;99.90;;;;;;5032371;28;20504;-82
2023/09/30 08:08:49;;;;;;;9.35;6.00;;;16.30;99.90;;;;;;5032116;28;20049;-81
2023/09/30 08:11:17;;;;;;;8.88;5.30;;;17.00;99.90;;;;;;5032281;28;20048;-82
2023/09/30 08:13:43;;;;;;;9.40;5.78;;;17.80;99.90;;;;;;5032312;28;20060;-82
2023/09/30 08:16:08;;;;;;;9.27;5.00;;;18.60;99.90;;;;;;5031080;28;20053;-82
2023/09/30 08:18:34;;;;;;;10.15;5.25;;;19.20;99.90;;;;;;5032138;28;20045;-82
2023/09/30 08:21:00;;;;;;;12.07;5.45;;;19.80;99.90;;;;;;5030920;28;20056;-82
2023/09/30 08:23:25;;;;;;;10.38;6.15;;;20.20;99.90;;;;;;5032204;28;20049;-82
2023/09/30 08:25:51;;;;;;;9.07;5.00;;;20.70;99.90;;;;;;5015165;28;20056;-82
2023/09/30 08:28:17;;;;;;;9.25;5.47;;;20.90;99.90;;;;;;5030969;28;20442;-83
2023/09/30 08:30:43;;;;;;;9.57;4.82;;;21.30;99.90;;;;;;5032241;28;20065;-82
2023/09/30 08:33:08;;;;;;;6.68;4.90;;;21.50;99.90;;;;;;5032138;28;20049;-82
2023/09/30 08:35:40;;;;;;;6.22;4.28;;;21.60;99.90;;;;;;5031918;28;20119;-80
2023/09/30 08:38:05;;;;;;;10.02;4.60;;;21.70;99.90;;;;;;5031872;28;20136;-82
2023/09/30 08:40:31;;;;;;;9.00;4.90;;;21.90;99.90;;;;;;5030331;28;20085;-82
2023/09/30 08:42:57;;;;;;;9.68;5.30;;;22.10;99.90;;;;;;5032230;28;20053;-82
2023/09/30 08:45:24;;;;;;;9.88;4.95;;;22.00;99.90;;;;;;5036092;28;20111;-82
2023/09/30 08:47:50;;;;;;;8.07;4.30;;;22.00;99.90;;;;;;5035480;28;20056;-82
2023/09/30 08:50:17;;;;;;;6.93;4.90;;;22.10;99.90;;;;;;5034059;28;20529;-82
2023/09/30 08:52:44;;;;;;;10.32;4.60;;;22.40;99.90;;;;;;5035587;28;20052;-82
2023/09/30 08:55:13;;;;;;;6.68;4.40;;;22.60;99.90;;;;;;5035924;28;20049;-82
2023/09/30 08:57:43;;;;;;;8.00;4.30;;;22.90;99.90;;;;;;5035427;28;20125;-82
2023/09/30 09:00:13;;;;;;;5.80;4.22;;;22.90;99.90;;;;;;5036061;28;20457;-82
2023/09/30 09:02:40;;;;;;;6.93;3.85;;;22.90;99.90;;;;;;5035405;28;20049;-83
2023/09/30 09:05:06;;;;;;;6.07;3.65;;;23.20;99.90;;;;;;5035392;28;20056;-82
2023/09/30 09:07:33;;;;;;;7.60;3.90;;;23.10;99.90;;;;;;5035701;28;20413;-82
2023/09/30 09:10:05;;;;;;;6.90;4.25;;;23.20;99.90;;;;;;5035116;28;20099;-84
2023/09/30 09:12:34;;;;;;;6.72;3.97;;;23.30;99.90;;;;;;5035650;28;20077;-83
2023/09/30 09:14:59;;;;;;;4.97;4.13;;;23.30;99.90;;;;;;5034811;28;20429;-83
2023/09/30 09:17:41;;;;;;;3.85;3.47;;;23.40;99.90;;;;;;5033963;28;20041;-83
2023/09/30 09:20:09;;;;;;;7.05;3.47;;;23.60;99.90;;;;;;5034142;28;20463;-82
2023/09/30 09:22:42;;;;;;;6.65;3.88;;;23.70;99.90;;;;;;5034789;28;20053;-82
2023/09/30 09:25:09;;;;;;;8.18;3.60;;;23.80;99.90;;;;;;5035134;28;20041;-83
2023/09/30 09:27:36;;;;;;;6.65;2.63;;;23.80;99.90;;;;;;5034979;28;20137;-82
2023/09/30 09:30:23;;;;;;;6.82;3.13;;;24.00;99.90;;;;;;5033822;28;20522;-82
2023/09/30 09:33:04;;;;;;;8.00;3.53;;;24.20;98.50;;;;;;5033778;28;20108;-82
2023/09/30 09:35:33;;;;;;;8.95;3.03;;;24.40;99.90;;;;;;5035044;28;20064;-82
2023/09/30 09:38:01;;;;;;;6.35;3.03;;;24.30;99.90;;;;;;5034771;28;20081;-82
2023/09/30 09:40:32;;;;;;;5.90;3.13;;;24.30;99.90;;;;;;5034581;28;20061;-82
2023/09/30 09:42:58;;;;;;;7.65;3.30;;;24.50;99.60;;;;;;5034700;28;20045;-82
2023/09/30 09:45:26;;;;;;;5.68;2.75;;;24.60;99.50;;;;;;5034669;28;20052;-82
2023/09/30 09:47:53;;;;;;;6.38;2.67;;;23.90;99.70;;;;;;5034649;28;20049;-82
2023/09/30 09:50:20;;;;;;;6.35;3.17;;;23.40;99.90;;;;;;5034480;28;20049;-82
2023/09/30 09:52:54;;;;;;;7.63;3.03;;;22.90;99.90;;;;;;5034500;28;20563;-81
2023/09/30 09:55:22;;;;;;;6.15;3.22;;;23.00;99.90;;;;;;5034091;28;20403;-81
2023/09/30 09:57:48;;;;;;;7.53;2.97;;;23.60;99.90;;;;;;5035073;28;20473;-82
2023/09/30 10:00:27;;;;;;;7.95;2.75;;;24.00;99.70;;;;;;5034377;28;20131;-82
2023/09/30 10:02:53;;;;;;;7.63;3.10;;;24.80;98.00;;;;;;5034346;28;20121;-82
2023/09/30 10:05:21;;;;;;;8.43;3.42;;;25.40;98.80;;;;;;5033823;28;20489;-81
2023/09/30 10:07:55;;;;;;;5.65;2.60;;;25.50;98.00;;;;;;5033746;28;20052;-82
2023/09/30 10:10:23;;;;;;;8.75;2.88;;;25.30;97.20;;;;;;5034542;28;20128;-81
2023/09/30 10:12:49;;;;;;;5.28;2.58;;;24.80;97.90;;;;;;5034135;28;20058;-84
2023/09/30 10:15:26;;;;;;;9.07;2.83;;;25.30;97.80;;;;;;5034109;28;20053;-82
2023/09/30 10:18:06;;;;;;;6.32;2.88;;;24.50;96.40;;;;;;5034408;28;20046;-83
2023/09/30 10:20:34;;;;;;;7.30;2.38;;;23.50;97.70;;;;;;5034109;28;20053;-82
2023/09/30 10:23:21;;;;;;;4.55;2.20;;;24.00;98.00;;;;;;5033885;28;20110;-82
2023/09/30 10:25:49;;;;;;;5.07;2.47;;;23.50;97.20;;;;;;5033825;28;20094;-82
2023/09/30 10:28:44;;;;;;;3.50;2.10;;;22.80;98.80;;;;;;5033837;28;20083;-82
2023/09/30 10:31:19;;;;;;;6.03;2.72;;;22.20;99.00;;;;;;5032610;28;20101;-82
2023/09/30 10:36:33;;;;;;;5.72;2.55;;;21.40;99.90;;;;;;5033632;28;20057;-83
2023/09/30 10:39:00;;;;;;;5.07;2.47;;;21.20;99.90;;;;;;5034221;28;20050;-81
2023/09/30 10:41:41;;;;;;;4.70;2.20;;;21.00;99.90;;;;;;5034194;28;20129;-81
2023/09/30 10:44:25;;;;;;;6.80;2.40;;;20.90;99.90;;;;;;5034024;28;20057;-82
2023/09/30 10:47:24;;;;;;;5.07;2.50;;;20.90;99.90;;;;;;5033865;28;20055;-81
2023/09/30 10:49:50;;;;;;;14.77;3.85;;;20.80;99.90;;;;;;5033553;28;20045;-82
2023/09/30 10:52:26;;;;;;;7.38;2.60;;;20.90;99.90;;;;;;5033399;28;20107;-83
2023/09/30 10:54:51;;;;;;;8.70;2.90;;;20.90;99.90;;;;;;5033264;28;20500;-83
2023/09/30 10:57:29;;;;;;;10.85;3.10;;;20.90;99.90;;;;;;5032355;28;20136;-83
2023/09/30 11:00:10;;;;;;;5.75;2.20;;;21.10;99.90;;;;;;5033124;28;20522;-83
2023/09/30 11:02:48;;;;;;;6.65;2.55;;;21.10;99.90;;;;;;5033507;28;20142;-83
2023/09/30 11:05:14;;;;;;;4.80;2.38;;;21.20;99.90;;;;;;5033069;28;20045;-83
2023/09/30 11:07:41;;;;;;;4.53;2.50;;;21.20;99.90;;;;;;5031314;28;20045;-82
2023/09/30 11:10:08;;;;;;;6.15;2.60;;;21.20;99.90;;;;;;5033027;28;20053;-80
2023/09/30 11:12:34;;;;;;;6.43;2.00;;;21.20;99.90;;;;;;5032331;28;20152;-78
2023/09/30 11:15:04;;;;;;;5.18;2.35;;;21.20;99.70;;;;;;5031800;28;20053;-84
2023/09/30 11:17:30;;;;;;;7.93;2.60;;;21.20;99.30;;;;;;5032604;28;20050;-83
2023/09/30 11:19:55;;;;;;;6.47;2.33;;;21.20;99.60;;;;;;5032985;28;20048;-82
2023/09/30 11:22:21;;;;;;;5.75;2.38;;;21.20;99.80;;;;;;5032721;28;20072;-82
2023/09/30 11:24:47;;;;;;;4.72;2.30;;;21.30;99.90;;;;;;5015301;28;20049;-81
2023/09/30 11:27:13;;;;;;;8.57;2.67;;;21.20;99.80;;;;;;5031004;28;20047;-80
2023/09/30 11:29:51;;;;;;;4.32;1.70;;;21.20;99.80;;;;;;5032385;28;20091;-80
2023/09/30 11:32:26;;;;;;;7.32;2.10;;;21.30;97.90;;;;;;5032533;28;20466;-79
2023/09/30 11:34:53;;;;;;;8.02;2.92;;;21.30;98.90;;;;;;5032519;28;20128;-79
2023/09/30 11:37:18;;;;;;;7.43;2.95;;;21.20;99.10;;;;;;5032406;28;20099;-81
2023/09/30 11:39:44;;;;;;;3.88;1.90;;;21.20;99.10;;;;;;5031033;28;20049;-79
2023/09/30 11:42:17;;;;;;;4.72;2.53;;;21.00;98.90;;;;;;5032439;28;20128;-79
2023/09/30 11:44:47;;;;;;;4.10;2.30;;;20.90;99.70;;;;;;5032716;28;20095;-80
2023/09/30 11:47:14;;;;;;;8.68;2.67;;;20.90;99.90;;;;;;5032458;28;20052;-80
2023/09/30 11:49:44;;;;;;;4.82;2.83;;;20.90;99.70;;;;;;5032433;28;20084;-79
2023/09/30 11:52:15;;;;;;;4.68;2.55;;;20.90;99.40;;;;;;5032537;28;20081;-81
2023/09/30 11:54:43;;;;;;;7.93;3.25;;;20.90;99.50;;;;;;5032513;28;20520;-81
2023/09/30 11:57:11;;;;;;;5.10;2.67;;;21.00;99.40;;;;;;5032679;28;20069;-81
2023/09/30 11:59:39;;;;;;;7.78;2.83;;;20.90;99.60;;;;;;5031614;28;20046;-81
2023/09/30 12:02:08;;;;;;;4.15;3.05;;;20.90;99.90;;;;;;5032323;28;20054;-81
2023/09/30 12:04:35;;;;;;;6.40;3.00;;;21.00;99.70;;;;;;5032427;28;20049;-81
2023/09/30 12:07:00;;;;;;;6.13;3.00;;;21.00;99.60;;;;;;5032034;28;20056;-81
2023/09/30 12:09:27;;;;;;;5.35;2.78;;;21.10;99.80;;;;;;5032098;28;20045;-83
2023/09/30 12:11:53;;;;;;;6.13;3.17;;;21.10;99.60;;;;;;5032363;28;20092;-81
2023/09/30 12:14:23;;;;;;;6.15;2.60;;;21.00;99.50;;;;;;5032086;28;20049;-80
2023/09/30 12:16:50;;;;;;;4.50;2.72;;;21.00;99.70;;;;;;5031700;28;20041;-80
2023/09/30 12:19:20;;;;;;;3.95;2.30;;;20.70;99.50;;;;;;5034544;28;20053;-81
2023/09/30 12:21:47;;;;;;;6.25;3.42;;;20.50;99.90;;;;;;5035947;28;20044;-80
2023/09/30 12:24:17;;;;;;;7.57;3.15;;;20.20;99.90;;;;;;5035803;28;20049;-79
2023/09/30 12:26:49;;;;;;;4.65;2.78;;;20.00;99.90;;;;;;5035827;28;20053;-80
2023/09/30 12:29:17;;;;;;;5.07;2.30;;;19.80;99.90;;;;;;5036178;28;20130;-81
2023/09/30 12:31:44;;;;;;;8.60;2.28;;;19.70;99.90;;;;;;5036005;28;20049;-79
2023/09/30 12:34:09;;;;;;;2.50;1.83;;;19.60;99.90;;;;;;5036288;28;20052;-79
2023/09/30 12:36:35;;;;;;;5.95;2.03;;;19.50;99.90;;;;;;5035866;28;20053;-79
2023/09/30 12:39:01;;;;;;;5.30;2.00;;;19.50;99.90;;;;;;5035805;28;20056;-80
2023/09/30 12:41:27;;;;;;;5.43;2.45;;;19.40;99.90;;;;;;5034195;28;20203;-79
2023/09/30 12:43:53;;;;;;;7.15;2.42;;;19.30;99.90;;;;;;5036273;28;20049;-79
2023/09/30 12:46:20;;;;;;;4.18;2.15;;;19.30;99.90;;;;;;5034864;28;20038;-81
2023/09/30 12:48:46;;;;;;;5.30;2.13;;;19.30;99.90;;;;;;5035922;28;20524;-81